Flight Track Log - Related Links

Times and Time Zones

All times are in EDT time to prevent confusion due to time zone crossing. See the SWA482 flight status page for this flight to view local times or setup timezone preferences in your user account.

Time Position Orientation Groundspeed Altitude Reporting Facility
EDT Latitude Longitude Course Direction KTS MPH feet Rate Location/Type
Fri 07:24:36 PM 36.0381 -115.2711 244° Southwest 245 282 5,800  Level Los Angeles Center
Fri 07:25:05 PM 36.0081 -115.2836 199° South 253 291 6,900 2,459 Climbing Los Angeles Center
Fri 07:25:37 PM 35.9658 -115.2975 195° South 283 326 8,300 2,903 Climbing Los Angeles Center
Fri 07:26:07 PM 35.9319 -115.2853 164° South 276 318 9,900 2,609 Climbing Los Angeles Center
Fri 07:27:09 PM 35.9014 -115.1861 111° Southeast 331 381 12,300 2,661 Climbing Los Angeles Center
Fri 07:28:11 PM 35.8925 -115.0633 95° East 356 410 15,400 3,000 Climbing Los Angeles Center
Fri 07:29:13 PM 35.8819 -114.9311 96° East 377 434 18,500 3,145 Climbing Los Angeles Center
Fri 07:30:15 PM 35.8686 -114.7631 96° East 407 468 21,900 2,832 Climbing Los Angeles Center
Fri 07:31:18 PM 35.8569 -114.6208 96° East 416 479 24,400 2,419 Climbing Los Angeles Center
Fri 07:32:19 PM 35.8008 -114.4914 118° Southeast 425 489 26,900 2,244 Climbing Los Angeles Center
Fri 07:33:21 PM 35.7342 -114.3681 124° Southeast 430 495 29,000 1,016 Climbing Los Angeles Center
Fri 07:34:23 PM 35.6644 -114.2364 123° Southeast 432 497 29,000  Level Los Angeles Center
Fri 07:35:25 PM 35.5992 -114.1119 123° Southeast 433 498 29,000  Level Los Angeles Center
Fri 07:36:27 PM 35.5342 -113.9897 123° Southeast 430 495 29,000  Level Los Angeles Center
Fri 07:37:29 PM 35.4653 -113.8617 123° Southeast 446 513 29,000  Level Los Angeles Center
Fri 07:38:31 PM 35.3806 -113.7072 124° Southeast 456 525 29,000  Level Los Angeles Center
Fri 07:39:33 PM 35.3106 -113.5792 124° Southeast 457 526 29,000  Level Los Angeles Center
Fri 07:40:35 PM 35.2400 -113.4500 124° Southeast 459 528 29,000  Level Los Angeles Center
Fri 07:41:37 PM 35.1694 -113.3214 124° Southeast 462 532 29,000  Level Los Angeles Center
Fri 07:42:35 PM 35.0989 -113.1933 124° Southeast 462 532 29,000 -303 Level Albuquerque Center
Fri 07:43:36 PM 35.0303 -113.0667 123° Southeast 459 528 28,400 -878 Descending Albuquerque Center
Fri 07:44:38 PM 34.9453 -112.9144 124° Southeast 461 531 27,200 -1,073 Descending Albuquerque Center
Fri 07:45:39 PM 34.8778 -112.7919 124° Southeast 448 516 26,200 -968 Descending Albuquerque Center
Fri 07:46:42 PM 34.8092 -112.6706 125° Southeast 442 509 25,200 -581 Descending Albuquerque Center
Fri 07:47:43 PM 34.7417 -112.5508 124° Southeast 436 502 25,000 -295 Descending Albuquerque Center
Fri 07:48:44 PM 34.6558 -112.4533 137° Southeast 436 502 24,600 -1,220 Descending Albuquerque Center
Fri 07:49:46 PM 34.5511 -112.3975 156° South 422 486 22,500 -2,195 Descending Albuquerque Center
Fri 07:50:47 PM 34.4294 -112.3281 155° Southeast 411 473 20,100 -2,049 Descending Albuquerque Center
Fri 07:51:49 PM 34.3331 -112.2736 155° Southeast 399 459 18,300 -1,805 Descending Albuquerque Center
Fri 07:52:50 PM 34.2419 -112.2236 156° South 380 437 16,400 -1,756 Descending Albuquerque Center
Fri 07:53:52 PM 34.1550 -112.1747 155° Southeast 351 404 14,700 -1,463 Descending Albuquerque Center
Fri 07:54:53 PM 34.0686 -112.1367 160° South 337 388 13,400 -1,366 Descending Albuquerque Center
Fri 07:55:55 PM 33.9839 -112.1478 186° South 310 357 11,900 -1,610 Descending Albuquerque Center
Fri 07:56:56 PM 33.8836 -112.1600 186° South 304 350 10,100 -1,220 Descending Albuquerque Center
Fri 07:57:58 PM 33.8064 -112.1775 191° South 287 330 9,400 -683 Descending Albuquerque Center
Fri 07:58:59 PM 33.7372 -112.1917 190° South 256 295 8,700 -683 Descending Albuquerque Center
Fri 08:00:01 PM 33.6717 -112.2053 190° South 243 280 8,000 -927 Descending Albuquerque Center
Fri 08:01:02 PM 33.6047 -112.2111 184° South 242 278 6,800 -1,122 Descending Albuquerque Center
Fri 08:02:04 PM 33.5397 -112.2139 182° South 235 270 5,700 -1,122 Descending Albuquerque Center
Fri 08:03:05 PM 33.4761 -112.2167 182° South 230 265 4,500 -1,220 Descending Albuquerque Center
Fri 08:04:07 PM 33.4417 -112.1589 126° Southeast 190 219 3,200 -1,065 Descending Albuquerque Center
Fri 08:05:09 PM 33.4406 -112.1031 91° East 169 194 2,300 -780 Descending Albuquerque Center
Fri 08:06:10 PM 33.4414 -112.0553 89° East 148 170 1,600 -585 Descending Albuquerque Center
Fri 08:07:12 PM 33.4408 -112.0119 91° East 148 170 1,100 -484 Descending Albuquerque Center

Login

Don't have an account? Register now (free) for customized features, flight alerts, and more!